Time;durP1;ratioP1;P1;durP2;ratioP2;P2;SDS_P1;SDS_P2;PMS_P1;PMS_P2;Temp;Humidity;BMP_temperature;BMP_pressure;BME280_temperature;BME280_humidity;BME280_pressure;Samples;Min_cycle;Max_cycle;Signal;HPM_P1;HPM_P2
2023/10/06 00:02:26;;;;;;;36.47;13.40;;;5.60;99.90;;;;;;4995212;28;19948;-84
2023/10/06 00:04:52;;;;;;;35.67;13.43;;;5.60;99.90;;;;;;4995321;28;20045;-84
2023/10/06 00:07:20;;;;;;;37.10;14.32;;;5.50;99.90;;;;;;4995140;28;20021;-85
2023/10/06 00:09:46;;;;;;;35.20;14.40;;;5.60;99.90;;;;;;5011687;28;20092;-84
2023/10/06 00:12:13;;;;;;;30.98;12.75;;;5.70;99.90;;;;;;4994708;28;20041;-85
2023/10/06 00:14:40;;;;;;;25.17;12.80;;;5.60;99.90;;;;;;4994326;28;20109;-85
2023/10/06 00:17:10;;;;;;;23.75;12.75;;;5.50;99.90;;;;;;4994211;28;20068;-84
2023/10/06 00:19:38;;;;;;;29.90;13.27;;;5.50;99.90;;;;;;5010182;28;20053;-84
2023/10/06 00:24:32;;;;;;;34.90;13.57;;;5.50;99.90;;;;;;4995100;28;20056;-84
2023/10/06 00:26:59;;;;;;;24.95;11.70;;;5.50;99.90;;;;;;5012713;28;20034;-85
2023/10/06 00:29:27;;;;;;;25.15;11.10;;;5.50;99.90;;;;;;5011276;28;20030;-84
2023/10/06 00:31:53;;;;;;;34.65;12.38;;;5.50;99.90;;;;;;4994913;28;20037;-85
2023/10/06 00:34:30;;;;;;;28.67;11.02;;;5.50;99.90;;;;;;4997729;28;20030;-85
2023/10/06 00:37:01;;;;;;;29.98;12.02;;;5.50;99.90;;;;;;4999023;28;20128;-85
2023/10/06 00:39:30;;;;;;;;;;;5.60;99.90;;;;;;5014823;28;20485;-85
2023/10/06 00:42:04;;;;;;;22.60;9.95;;;5.50;99.90;;;;;;4998323;28;19920;-84
2023/10/06 00:44:30;;;;;;;28.55;10.88;;;5.50;99.90;;;;;;4998568;28;20061;-84
2023/10/06 00:46:58;;;;;;;26.17;12.25;;;5.50;99.90;;;;;;4998417;28;20120;-85
2023/10/06 00:49:25;;;;;;;24.95;11.75;;;5.50;99.90;;;;;;4998512;28;20044;-84
2023/10/06 00:51:53;;;;;;;29.40;13.07;;;5.40;99.90;;;;;;4998347;28;20100;-84
2023/10/06 00:54:20;;;;;;;25.13;11.68;;;5.40;99.90;;;;;;5015737;28;20745;-84
2023/10/06 00:56:47;;;;;;;26.95;11.38;;;5.30;99.90;;;;;;4997876;28;20049;-85
2023/10/06 00:59:12;;;;;;;23.83;10.63;;;5.30;99.90;;;;;;4998483;28;20026;-85
2023/10/06 01:01:42;;;;;;;24.33;11.55;;;5.30;99.90;;;;;;4998358;28;20041;-85
2023/10/06 01:04:08;;;;;;;33.45;13.93;;;5.30;99.90;;;;;;5014730;28;20485;-84
2023/10/06 01:06:36;;;;;;;22.75;10.90;;;5.30;99.90;;;;;;4997753;28;20092;-85
2023/10/06 01:11:51;;;;;;;21.83;10.98;;;5.30;99.90;;;;;;4997845;28;20400;-84
2023/10/06 01:14:27;;;;;;;28.00;12.50;;;5.20;99.90;;;;;;4998124;28;20501;-84
2023/10/06 01:17:30;;;;;;;33.03;12.55;;;5.20;99.90;;;;;;4997912;28;20054;-84
2023/10/06 01:19:59;;;;;;;27.27;11.93;;;5.20;99.90;;;;;;5015268;28;20066;-85
2023/10/06 01:22:27;;;;;;;30.55;12.27;;;5.20;99.90;;;;;;4997633;28;20120;-84
2023/10/06 01:24:54;;;;;;;29.88;11.75;;;5.30;99.90;;;;;;5013668;28;20040;-84
2023/10/06 01:27:25;;;;;;;31.30;10.82;;;5.20;99.90;;;;;;4997674;28;20026;-85
2023/10/06 01:30:16;;;;;;;20.33;11.20;;;5.20;99.90;;;;;;5013598;28;20100;-85
2023/10/06 01:32:41;;;;;;;31.23;11.57;;;5.20;99.90;;;;;;5012371;28;20034;-84
2023/10/06 01:35:18;;;;;;;33.70;11.90;;;5.20;99.90;;;;;;4997643;28;20033;-84
2023/10/06 01:37:45;;;;;;;32.13;11.05;;;5.20;99.90;;;;;;4997628;28;20433;-84
2023/10/06 01:43:23;;;;;;;29.20;12.55;;;5.20;99.90;;;;;;4997503;28;20076;-84
2023/10/06 01:45:50;;;;;;;28.15;11.82;;;5.20;99.90;;;;;;4997381;28;20061;-84
2023/10/06 01:50:48;;;;;;;29.30;11.75;;;5.20;99.90;;;;;;4997364;28;20102;-84
2023/10/06 01:53:18;;;;;;;29.50;12.13;;;5.20;99.90;;;;;;4997065;28;20056;-84
2023/10/06 01:56:00;;;;;;;24.42;10.95;;;5.20;99.90;;;;;;5013198;28;20041;-84
2023/10/06 01:58:27;;;;;;;32.67;12.15;;;5.20;99.90;;;;;;5014267;28;20026;-84
2023/10/06 02:00:52;;;;;;;30.70;11.77;;;5.10;99.90;;;;;;4998013;28;20021;-84
2023/10/06 02:03:21;;;;;;;33.58;13.45;;;5.10;99.90;;;;;;4998066;28;20022;-84
2023/10/06 02:05:47;;;;;;;30.35;12.68;;;5.00;99.90;;;;;;4997605;28;20041;-85
2023/10/06 02:08:23;;;;;;;30.40;12.88;;;5.10;99.90;;;;;;4997590;28;20040;-85
2023/10/06 02:10:50;;;;;;;36.80;15.20;;;5.10;99.90;;;;;;5013917;28;20029;-84
2023/10/06 02:13:21;;;;;;;33.92;14.75;;;5.20;99.90;;;;;;5014740;28;20644;-84
2023/10/06 02:15:58;;;;;;;40.88;14.98;;;5.20;99.90;;;;;;5013595;28;20026;-85
2023/10/06 02:18:46;;;;;;;36.17;16.25;;;5.20;99.90;;;;;;4997185;28;20087;-84
2023/10/06 02:21:12;;;;;;;32.53;15.35;;;5.20;99.90;;;;;;5014372;28;20064;-84
2023/10/06 02:23:38;;;;;;;46.05;17.15;;;5.20;99.90;;;;;;4997273;28;20085;-84
2023/10/06 02:26:07;;;;;;;39.10;16.67;;;5.20;99.90;;;;;;5014232;28;20163;-84
2023/10/06 02:28:33;;;;;;;39.90;17.08;;;5.10;99.90;;;;;;4996397;28;20124;-84
2023/10/06 02:31:04;;;;;;;42.47;16.92;;;5.10;99.90;;;;;;4996815;28;20034;-84
2023/10/06 02:33:39;;;;;;;38.63;17.27;;;5.10;99.90;;;;;;5014644;28;20034;-84
2023/10/06 02:39:05;;;;;;;37.53;17.63;;;5.10;99.90;;;;;;4988977;28;20033;-84
2023/10/06 02:41:32;;;;;;;49.97;19.50;;;5.20;99.90;;;;;;4997342;28;20021;-84
2023/10/06 02:44:08;;;;;;;43.47;18.05;;;5.10;99.90;;;;;;4997114;28;20038;-84
2023/10/06 02:46:36;;;;;;;37.15;17.30;;;5.10;99.90;;;;;;4997287;28;20044;-84
2023/10/06 02:49:07;;;;;;;46.38;17.42;;;5.10;99.90;;;;;;4997115;28;20040;-84
2023/10/06 02:51:33;;;;;;;49.13;18.55;;;5.10;99.90;;;;;;5001910;28;20068;-84
2023/10/06 02:56:46;;;;;;;50.85;21.35;;;5.00;99.90;;;;;;4996571;28;20159;-84
2023/10/06 02:59:21;;;;;;;47.78;20.35;;;5.00;99.90;;;;;;4996465;28;20092;-84
2023/10/06 03:01:52;;;;;;;44.67;19.83;;;5.00;99.90;;;;;;4995902;28;20033;-84
2023/10/06 03:04:24;;;;;;;53.73;21.57;;;5.00;99.90;;;;;;5012267;28;20034;-84
2023/10/06 03:06:55;;;;;;;48.53;23.02;;;5.00;99.90;;;;;;5012018;28;20030;-84
2023/10/06 03:09:21;;;;;;;53.72;24.13;;;5.10;99.90;;;;;;4996015;28;20044;-84
2023/10/06 03:11:49;;;;;;;60.88;23.98;;;5.10;99.90;;;;;;4995665;28;20026;-84
2023/10/06 03:14:24;;;;;;;57.45;24.25;;;5.00;99.90;;;;;;4992047;28;20424;-85
2023/10/06 03:16:51;;;;;;;58.83;24.90;;;5.00;99.90;;;;;;4996034;28;20458;-85
2023/10/06 03:19:24;;;;;;;61.33;28.60;;;5.10;99.90;;;;;;4995562;28;20034;-85
2023/10/06 03:21:56;;;;;;;69.15;28.70;;;5.10;99.90;;;;;;5011587;28;20034;-85
2023/10/06 03:24:30;;;;;;;71.45;28.02;;;5.20;99.90;;;;;;4994979;28;20068;-85
2023/10/06 03:26:58;;;;;;;63.40;27.10;;;5.20;99.90;;;;;;5011809;28;20030;-85
2023/10/06 03:29:39;;;;;;;58.40;26.73;;;5.20;99.90;;;;;;4995301;28;20033;-85
2023/10/06 03:32:11;;;;;;;66.28;29.63;;;5.20;99.90;;;;;;4995492;28;20034;-85
2023/10/06 03:34:38;;;;;;;76.13;32.25;;;5.10;99.90;;;;;;4995583;28;20048;-84
2023/10/06 03:37:09;;;;;;;85.65;34.45;;;5.10;99.90;;;;;;4995494;28;20026;-84
2023/10/06 03:39:47;;;;;;;102.65;38.78;;;5.20;99.90;;;;;;5012858;28;20517;-85
2023/10/06 03:42:18;;;;;;;104.10;40.75;;;5.20;99.90;;;;;;4995436;28;20033;-85
2023/10/06 03:44:45;;;;;;;65.75;30.63;;;5.40;99.90;;;;;;5011915;28;20041;-85
2023/10/06 03:47:11;;;;;;;76.93;30.85;;;5.40;99.90;;;;;;4995718;28;20038;-85
2023/10/06 03:49:37;;;;;;;80.90;31.95;;;5.30;99.90;;;;;;4995705;28;20103;-85
2023/10/06 03:52:09;;;;;;;77.47;30.42;;;5.30;99.90;;;;;;4991950;28;20030;-84
2023/10/06 03:54:36;;;;;;;72.75;29.23;;;5.20;99.90;;;;;;4995114;28;20044;-85
2023/10/06 03:57:04;;;;;;;62.42;27.15;;;5.20;99.90;;;;;;4994996;28;20052;-85
2023/10/06 03:59:30;;;;;;;76.22;28.83;;;5.10;99.90;;;;;;4995439;28;20038;-84
2023/10/06 04:01:55;;;;;;;75.10;31.98;;;5.10;99.90;;;;;;4995720;28;20042;-84
2023/10/06 04:04:25;;;;;;;85.30;34.00;;;5.10;99.90;;;;;;4994764;28;20105;-85
2023/10/06 04:06:54;;;;;;;93.13;35.70;;;5.10;99.90;;;;;;4995013;28;20038;-85
2023/10/06 04:09:27;;;;;;;104.65;37.42;;;5.30;99.90;;;;;;5014078;28;20121;-85
2023/10/06 04:11:54;;;;;;;103.72;37.75;;;5.40;99.90;;;;;;4999041;28;20026;-85
2023/10/06 04:14:20;;;;;;;120.13;42.35;;;5.40;99.90;;;;;;5015028;28;20477;-85
2023/10/06 04:16:46;;;;;;;102.07;40.30;;;5.40;99.90;;;;;;4998413;28;20034;-85
2023/10/06 04:19:15;;;;;;;99.07;39.30;;;5.40;99.90;;;;;;4998640;28;20104;-85
2023/10/06 04:21:42;;;;;;;105.43;41.22;;;5.30;99.90;;;;;;4998729;28;20025;-85
2023/10/06 04:24:08;;;;;;;111.20;41.53;;;5.30;99.90;;;;;;4998793;28;20042;-84
2023/10/06 04:26:34;;;;;;;109.47;43.00;;;5.20;99.90;;;;;;5015064;28;20196;-84
2023/10/06 04:28:59;;;;;;;125.15;43.58;;;5.20;99.90;;;;;;4998642;28;20452;-84
2023/10/06 04:31:25;;;;;;;101.22;39.83;;;5.20;99.90;;;;;;5015150;28;20029;-85
2023/10/06 04:33:51;;;;;;;101.85;41.75;;;5.10;99.90;;;;;;5016114;28;20089;-85
2023/10/06 04:36:20;;;;;;;123.45;44.05;;;5.10;99.90;;;;;;5015045;28;20033;-84
2023/10/06 04:38:46;;;;;;;108.07;41.25;;;5.10;99.90;;;;;;4998262;28;20370;-85
2023/10/06 04:41:14;;;;;;;106.40;39.10;;;5.00;99.90;;;;;;5015896;28;20120;-84
2023/10/06 04:43:44;;;;;;;93.03;37.28;;;5.00;99.90;;;;;;4998295;28;20038;-85
2023/10/06 04:46:11;;;;;;;104.15;44.20;;;5.00;99.90;;;;;;4998986;28;20049;-85
2023/10/06 04:48:38;;;;;;;123.55;60.75;;;5.00;99.90;;;;;;4998392;28;20033;-84
2023/10/06 04:51:10;;;;;;;106.25;47.08;;;4.90;99.90;;;;;;5014545;28;20038;-85
2023/10/06 04:53:36;;;;;;;114.55;43.45;;;5.00;99.90;;;;;;4994485;28;20114;-84
2023/10/06 04:56:06;;;;;;;108.55;41.05;;;5.00;99.90;;;;;;4998443;28;20066;-84
2023/10/06 04:58:35;;;;;;;106.30;41.27;;;5.10;99.90;;;;;;4999322;28;20036;-84
2023/10/06 05:01:02;;;;;;;102.22;38.40;;;5.00;99.90;;;;;;4998237;28;20046;-85
2023/10/06 05:03:40;;;;;;;95.57;38.58;;;5.00;99.90;;;;;;4998279;28;20481;-84
2023/10/06 05:06:15;;;;;;;101.38;40.42;;;5.00;99.90;;;;;;5015748;28;20040;-84
2023/10/06 05:08:44;;;;;;;102.55;42.42;;;5.00;99.90;;;;;;5014120;28;20041;-84
2023/10/06 05:11:12;;;;;;;111.82;41.85;;;5.10;99.90;;;;;;5015213;28;20473;-84
2023/10/06 05:13:37;;;;;;;106.55;42.63;;;5.00;99.90;;;;;;5015075;28;20033;-84
2023/10/06 05:16:03;;;;;;;106.97;42.15;;;4.90;99.90;;;;;;4996987;28;20053;-84
2023/10/06 05:18:29;;;;;;;110.13;41.45;;;4.90;99.90;;;;;;4997653;28;20038;-85
2023/10/06 05:20:55;;;;;;;92.03;39.55;;;5.00;99.90;;;;;;4997735;28;20040;-84
2023/10/06 05:23:21;;;;;;;116.88;43.90;;;5.00;99.90;;;;;;5014117;28;20033;-85
2023/10/06 05:25:47;;;;;;;113.05;46.25;;;4.90;99.90;;;;;;4997753;28;20057;-85
2023/10/06 05:28:17;;;;;;;119.65;44.47;;;4.90;99.90;;;;;;4997194;28;20042;-84
2023/10/06 05:30:44;;;;;;;117.13;44.45;;;4.90;99.90;;;;;;5013303;28;20367;-84
2023/10/06 05:33:10;;;;;;;120.90;46.30;;;4.90;99.90;;;;;;4996972;28;20041;-85
2023/10/06 05:35:40;;;;;;;114.00;44.78;;;4.90;99.90;;;;;;4996952;28;20392;-85
2023/10/06 05:38:08;;;;;;;139.23;45.97;;;5.00;99.90;;;;;;4997544;28;20029;-85
2023/10/06 05:40:37;;;;;;;126.55;43.80;;;5.00;99.90;;;;;;4997788;28;20092;-85
2023/10/06 05:43:04;;;;;;;124.22;46.65;;;5.10;99.90;;;;;;4997161;28;20018;-85
2023/10/06 05:45:31;;;;;;;126.30;46.22;;;5.20;99.90;;;;;;4997479;28;20032;-84
2023/10/06 05:48:06;;;;;;;109.88;43.63;;;5.20;99.90;;;;;;5015434;28;20473;-85
2023/10/06 05:50:35;;;;;;;109.40;42.40;;;5.30;99.90;;;;;;4996597;28;20034;-85
2023/10/06 05:53:04;;;;;;;114.70;44.85;;;5.20;99.90;;;;;;4996601;28;20493;-84
2023/10/06 05:55:31;;;;;;;121.05;45.47;;;5.20;99.90;;;;;;4995681;28;20140;-84
2023/10/06 05:58:01;;;;;;;108.88;45.92;;;5.20;99.90;;;;;;4996246;28;20025;-84
2023/10/06 06:00:30;;;;;;;106.75;43.85;;;5.30;99.90;;;;;;5012411;28;20531;-84
2023/10/06 06:03:10;;;;;;;112.72;45.40;;;5.30;99.90;;;;;;5010028;28;20030;-85
2023/10/06 06:05:40;;;;;;;132.48;45.60;;;5.30;99.90;;;;;;5013756;28;20041;-85
2023/10/06 06:08:08;;;;;;;101.28;41.42;;;5.40;99.90;;;;;;5013588;28;20030;-84
2023/10/06 06:10:35;;;;;;;113.85;43.15;;;5.40;99.90;;;;;;4995813;28;20037;-84
2023/10/06 06:13:02;;;;;;;107.57;42.92;;;5.50;99.90;;;;;;4995516;28;20516;-84
2023/10/06 06:15:30;;;;;;;124.00;45.65;;;5.60;99.90;;;;;;4996087;28;20030;-84
2023/10/06 06:18:00;;;;;;;127.10;45.33;;;5.80;99.90;;;;;;4995753;28;20030;-84
2023/10/06 06:20:27;;;;;;;123.68;44.78;;;5.90;99.90;;;;;;4995722;28;20384;-84
2023/10/06 06:22:53;;;;;;;127.25;44.22;;;6.00;99.90;;;;;;4995982;28;20037;-84
2023/10/06 06:25:28;;;;;;;110.30;44.15;;;6.10;99.90;;;;;;4995812;28;20034;-84
2023/10/06 06:27:55;;;;;;;111.15;42.13;;;6.10;99.90;;;;;;5012161;28;20037;-84
2023/10/06 06:30:24;;;;;;;103.43;41.97;;;6.10;99.90;;;;;;5012766;28;20026;-84
2023/10/06 06:36:37;;;;;;;116.43;41.03;;;6.30;99.90;;;;;;5013881;28;20128;-84
2023/10/06 06:39:03;;;;;;;100.40;41.08;;;6.40;99.90;;;;;;4996141;28;20038;-85
2023/10/06 06:41:30;;;;;;;112.07;43.22;;;6.40;99.90;;;;;;4995720;28;20495;-85
2023/10/06 06:43:58;;;;;;;110.15;42.33;;;6.60;99.90;;;;;;4995156;28;20045;-85
2023/10/06 06:46:29;;;;;;;91.57;38.88;;;6.70;99.90;;;;;;5012551;28;20038;-85
2023/10/06 06:48:56;;;;;;;105.78;41.67;;;6.80;99.90;;;;;;4996072;28;20555;-85
2023/10/06 06:51:27;;;;;;;95.40;37.85;;;7.00;99.90;;;;;;4995668;28;20037;-85
2023/10/06 06:53:57;;;;;;;88.43;35.60;;;7.00;99.90;;;;;;4994943;28;20042;-85
2023/10/06 06:56:24;;;;;;;101.18;37.25;;;7.20;99.90;;;;;;4979200;28;20452;-85
2023/10/06 06:58:51;;;;;;;94.85;37.00;;;7.20;99.90;;;;;;4994355;28;20037;-84
2023/10/06 07:01:18;;;;;;;81.50;34.47;;;7.30;99.90;;;;;;4993941;28;20030;-85
2023/10/06 07:03:44;;;;;;;86.05;38.30;;;7.40;99.90;;;;;;4994969;28;20048;-84
2023/10/06 07:06:16;;;;;;;95.88;38.10;;;7.50;99.90;;;;;;5010918;28;20034;-85
2023/10/06 07:08:46;;;;;;;97.80;38.17;;;7.70;99.90;;;;;;5012608;28;20037;-85
2023/10/06 07:11:13;;;;;;;102.18;37.47;;;7.80;99.90;;;;;;5011745;28;20038;-85
2023/10/06 07:13:39;;;;;;;97.78;41.30;;;7.90;99.90;;;;;;5011313;28;20482;-85
2023/10/06 07:16:06;;;;;;;100.93;41.67;;;8.10;99.90;;;;;;5011964;28;20085;-84
2023/10/06 07:18:36;;;;;;;92.57;40.30;;;8.20;99.90;;;;;;4994677;28;20787;-85
2023/10/06 07:21:08;;;;;;;100.37;39.80;;;8.30;99.90;;;;;;4995068;28;20500;-84
2023/10/06 07:23:34;;;;;;;113.68;45.22;;;8.50;99.90;;;;;;5011143;28;20041;-84
2023/10/06 07:26:00;;;;;;;117.70;47.97;;;8.70;99.90;;;;;;5010867;28;20045;-84
2023/10/06 07:28:27;;;;;;;126.95;49.58;;;8.90;99.90;;;;;;4994443;28;20030;-85
2023/10/06 07:30:52;;;;;;;129.10;49.22;;;9.00;99.90;;;;;;4994509;28;20433;-84
2023/10/06 07:33:19;;;;;;;113.95;48.38;;;9.10;99.90;;;;;;4993746;28;20022;-85
2023/10/06 07:35:51;;;;;;;145.05;49.63;;;9.20;99.90;;;;;;4994147;28;20034;-85
2023/10/06 07:38:18;;;;;;;133.73;48.90;;;9.30;99.90;;;;;;4994501;28;20424;-85
2023/10/06 07:40:44;;;;;;;108.88;47.63;;;9.40;99.90;;;;;;4994167;28;20261;-84
2023/10/06 07:43:10;;;;;;;122.82;50.00;;;9.50;99.90;;;;;;4994315;28;20034;-84
2023/10/06 07:45:36;;;;;;;122.75;50.40;;;9.50;99.90;;;;;;4994526;28;20113;-84
2023/10/06 07:48:06;;;;;;;151.63;55.65;;;9.60;99.90;;;;;;4994368;28;20080;-84
2023/10/06 07:50:34;;;;;;;126.53;53.22;;;9.60;99.90;;;;;;4993854;28;20130;-84
2023/10/06 07:53:02;;;;;;;128.10;54.45;;;9.70;99.90;;;;;;4994062;28;20433;-84
2023/10/06 07:55:28;;;;;;;126.82;54.83;;;9.70;99.90;;;;;;4993818;28;20046;-84
2023/10/06 07:57:54;;;;;;;114.15;50.47;;;9.80;99.90;;;;;;4994798;28;20058;-85
2023/10/06 08:00:27;;;;;;;108.57;47.50;;;9.80;99.90;;;;;;4994964;28;20034;-84
2023/10/06 08:02:59;;;;;;;103.38;43.58;;;9.90;99.90;;;;;;4994713;28;20077;-85
2023/10/06 08:05:25;;;;;;;105.57;46.28;;;9.90;99.90;;;;;;4994570;28;20037;-84
2023/10/06 08:07:52;;;;;;;94.70;44.00;;;10.00;99.90;;;;;;4994719;28;20065;-84
2023/10/06 08:10:18;;;;;;;99.05;39.33;;;10.00;99.90;;;;;;4994390;28;20092;-84
2023/10/06 08:12:46;;;;;;;85.40;37.42;;;10.10;99.90;;;;;;4994325;28;20129;-84
2023/10/06 08:15:17;;;;;;;73.45;36.08;;;10.20;99.90;;;;;;4993772;28;20042;-84
2023/10/06 08:17:45;;;;;;;95.27;40.90;;;10.20;99.90;;;;;;4993850;28;20046;-84
2023/10/06 08:20:12;;;;;;;75.97;34.45;;;10.20;99.90;;;;;;4993703;28;20288;-85
2023/10/06 08:22:39;;;;;;;63.75;31.63;;;10.30;99.90;;;;;;4994416;28;20037;-84
2023/10/06 08:25:05;;;;;;;65.47;32.03;;;10.30;99.90;;;;;;4994570;28;20541;-85
2023/10/06 08:27:35;;;;;;;62.63;28.48;;;10.40;99.90;;;;;;4994244;28;20038;-85
2023/10/06 08:30:01;;;;;;;50.15;24.73;;;10.50;99.90;;;;;;4994265;28;20030;-85
2023/10/06 08:32:27;;;;;;;48.92;26.33;;;10.50;99.90;;;;;;4993292;28;20671;-85
2023/10/06 08:34:53;;;;;;;55.33;22.67;;;10.60;99.90;;;;;;4994185;28;20092;-85
2023/10/06 08:37:19;;;;;;;47.30;22.40;;;10.70;99.90;;;;;;4994948;28;20649;-85
2023/10/06 08:39:46;;;;;;;57.00;24.95;;;10.70;99.90;;;;;;5010913;28;20044;-85
2023/10/06 08:42:15;;;;;;;58.78;22.40;;;10.90;99.90;;;;;;4994325;28;20061;-85
2023/10/06 08:44:44;;;;;;;55.05;23.27;;;11.00;99.90;;;;;;5011602;28;20095;-83
2023/10/06 08:47:13;;;;;;;46.80;19.95;;;11.10;99.90;;;;;;4993987;28;20514;-84
2023/10/06 08:49:43;;;;;;;47.28;17.75;;;11.20;99.90;;;;;;4994209;28;20484;-84
2023/10/06 08:52:12;;;;;;;35.70;15.65;;;11.30;99.90;;;;;;4994331;28;20037;-84
2023/10/06 08:54:43;;;;;;;35.92;15.88;;;11.30;99.90;;;;;;5012390;28;20033;-85
2023/10/06 08:57:11;;;;;;;;;;;11.50;99.90;;;;;;4998015;28;20529;-85
2023/10/06 08:59:39;;;;;;;30.95;13.23;;;11.80;99.90;;;;;;4997613;28;19909;-85
2023/10/06 09:02:05;;;;;;;25.85;11.13;;;12.20;99.90;;;;;;4997910;28;20076;-85
2023/10/06 09:04:35;;;;;;;27.98;10.15;;;12.60;99.90;;;;;;5015364;28;20026;-85
2023/10/06 09:07:12;;;;;;;20.83;10.27;;;13.10;99.90;;;;;;4997276;28;20073;-85
2023/10/06 09:09:40;;;;;;;30.75;11.35;;;13.50;99.90;;;;;;4997906;28;20037;-85
2023/10/06 09:12:07;;;;;;;40.17;16.10;;;14.10;99.90;;;;;;5013676;28;20073;-85
2023/10/06 09:14:33;;;;;;;36.95;14.57;;;14.40;99.90;;;;;;4997387;28;20030;-85
2023/10/06 09:17:01;;;;;;;79.63;32.15;;;15.00;99.90;;;;;;4997282;28;20022;-85
2023/10/06 09:19:49;;;;;;;42.65;19.20;;;15.00;99.90;;;;;;4997388;28;20425;-85
2023/10/06 09:22:16;;;;;;;21.40;10.23;;;15.60;99.90;;;;;;4997044;28;20030;-85
2023/10/06 09:24:54;;;;;;;29.52;11.05;;;15.90;99.90;;;;;;5014240;28;20022;-85
2023/10/06 09:27:21;;;;;;;25.23;9.50;;;15.90;99.90;;;;;;5013591;28;20037;-85
2023/10/06 09:29:47;;;;;;;18.92;9.57;;;16.00;99.90;;;;;;4997107;28;20109;-86
2023/10/06 09:32:21;;;;;;;23.75;8.25;;;16.60;99.90;;;;;;4997206;28;20486;-85
2023/10/06 09:34:53;;;;;;;16.38;7.70;;;17.20;99.90;;;;;;4996891;28;20033;-85
2023/10/06 09:37:19;;;;;;;20.83;8.93;;;16.80;99.90;;;;;;4996833;28;20036;-86
2023/10/06 09:40:43;;;;;;;22.95;8.60;;;16.50;99.90;;;;;;5015052;28;20052;-85
2023/10/06 09:42:47;;;;;;;24.08;8.82;;;16.50;99.90;;;;;;5002495;28;20068;-85
2023/10/06 09:45:17;;;;;;;20.48;9.25;;;16.30;99.90;;;;;;5014809;28;20564;-85
2023/10/06 09:47:59;;;;;;;18.90;8.02;;;16.30;99.90;;;;;;4997161;28;20022;-85
2023/10/06 09:50:26;;;;;;;19.48;7.22;;;16.70;99.90;;;;;;4996620;28;20048;-85
2023/10/06 09:52:52;;;;;;;18.88;7.75;;;16.80;99.90;;;;;;4996691;28;20053;-85
2023/10/06 09:55:20;;;;;;;18.92;7.55;;;17.30;99.90;;;;;;4996941;28;20163;-86
2023/10/06 09:57:50;;;;;;;22.58;7.97;;;17.70;99.90;;;;;;5013373;28;20025;-85
2023/10/06 10:00:18;;;;;;;15.30;7.40;;;18.40;99.90;;;;;;4997202;28;20029;-83
2023/10/06 10:02:50;;;;;;;16.33;7.30;;;19.00;99.90;;;;;;5012487;28;20048;-83
2023/10/06 10:05:22;;;;;;;17.08;7.53;;;19.00;99.90;;;;;;4995926;28;20030;-82
2023/10/06 10:07:48;;;;;;;21.33;8.00;;;18.00;99.90;;;;;;4996215;28;20033;-86
2023/10/06 10:10:22;;;;;;;18.80;8.90;;;18.10;99.90;;;;;;5012115;28;20508;-85
2023/10/06 10:13:01;;;;;;;20.88;7.70;;;18.40;99.90;;;;;;5012769;28;20034;-85
2023/10/06 10:15:44;;;;;;;16.90;7.38;;;18.50;99.90;;;;;;4997065;28;20038;-86
2023/10/06 10:18:35;;;;;;;20.73;7.70;;;19.00;99.90;;;;;;4996759;28;20030;-85
2023/10/06 10:21:01;;;;;;;15.20;6.97;;;19.10;99.90;;;;;;4996870;28;20030;-86
2023/10/06 10:23:30;;;;;;;16.88;7.05;;;19.70;99.90;;;;;;5012666;28;20496;-86
2023/10/06 10:26:22;;;;;;;19.77;7.28;;;19.80;99.90;;;;;;5013052;28;20470;-86
2023/10/06 10:29:12;;;;;;;15.35;6.70;;;19.90;99.90;;;;;;4996833;28;20549;-83
2023/10/06 10:32:01;;;;;;;16.57;7.87;;;19.60;99.90;;;;;;4979488;28;20022;-83
2023/10/06 10:34:33;;;;;;;16.83;7.57;;;19.00;99.90;;;;;;4995339;28;20830;-84
2023/10/06 10:37:05;;;;;;;18.35;7.25;;;18.90;99.90;;;;;;4995882;28;20030;-84
2023/10/06 10:39:45;;;;;;;15.82;6.88;;;19.10;99.90;;;;;;4996072;28;20048;-84
2023/10/06 10:42:12;;;;;;;17.35;7.95;;;19.00;99.90;;;;;;4995682;28;20054;-84
2023/10/06 10:44:39;;;;;;;18.63;7.82;;;18.50;99.90;;;;;;4995971;28;20026;-84
2023/10/06 10:47:06;;;;;;;17.05;6.80;;;18.60;99.90;;;;;;5012713;28;20063;-84
2023/10/06 10:49:33;;;;;;;13.40;6.28;;;18.60;99.90;;;;;;4996264;28;20106;-85
2023/10/06 10:52:06;;;;;;;12.73;6.75;;;18.90;99.90;;;;;;4995827;28;20034;-84
2023/10/06 10:54:33;;;;;;;22.35;7.18;;;19.00;99.90;;;;;;4995468;28;20041;-84
2023/10/06 10:57:09;;;;;;;17.40;7.30;;;19.00;99.90;;;;;;4995481;28;20030;-84
2023/10/06 11:00:00;;;;;;;17.40;7.75;;;18.90;99.90;;;;;;5011815;28;20402;-84
2023/10/06 11:03:03;;;;;;;12.13;6.65;;;19.10;99.90;;;;;;4979559;28;20026;-84
2023/10/06 11:05:28;;;;;;;16.27;6.40;;;19.30;99.90;;;;;;5013535;28;20052;-85
2023/10/06 11:07:56;;;;;;;18.48;7.03;;;20.00;99.90;;;;;;4995808;28;20034;-84
2023/10/06 11:10:26;;;;;;;16.30;6.93;;;20.00;99.90;;;;;;5013013;28;20130;-84
2023/10/06 11:13:19;;;;;;;16.15;6.70;;;20.10;99.90;;;;;;5012639;28;20080;-85
2023/10/06 11:15:48;;;;;;;15.52;6.35;;;20.70;99.90;;;;;;5011831;28;20034;-84
2023/10/06 11:18:17;;;;;;;13.27;6.43;;;21.20;99.90;;;;;;5012549;28;20385;-84
2023/10/06 11:20:45;;;;;;;15.35;6.63;;;21.10;99.90;;;;;;5012807;28;20045;-85
2023/10/06 11:23:11;;;;;;;18.98;6.70;;;20.60;99.90;;;;;;5012736;28;20026;-84
2023/10/06 11:25:48;;;;;;;11.60;5.53;;;20.90;99.90;;;;;;5009576;28;20446;-84
2023/10/06 11:28:15;;;;;;;10.15;5.38;;;20.90;99.90;;;;;;5011429;28;20034;-84
2023/10/06 11:30:42;;;;;;;13.60;5.72;;;20.90;99.90;;;;;;5011576;28;20034;-84
2023/10/06 11:33:10;;;;;;;11.00;5.60;;;21.20;99.90;;;;;;4994564;28;20073;-85
2023/10/06 11:35:37;;;;;;;12.25;5.13;;;21.10;99.90;;;;;;4995189;28;20105;-85
2023/10/06 11:38:05;;;;;;;15.75;6.00;;;21.00;99.90;;;;;;5012717;28;20091;-84
2023/10/06 11:40:34;;;;;;;9.75;4.85;;;21.50;99.90;;;;;;5010981;28;20759;-84
2023/10/06 11:43:15;;;;;;;18.85;6.07;;;22.20;99.90;;;;;;4994390;28;20425;-84
2023/10/06 11:45:44;;;;;;;11.90;4.97;;;23.20;99.90;;;;;;4994909;28;20795;-84
2023/10/06 11:48:33;;;;;;;10.93;5.35;;;23.20;99.90;;;;;;4994864;28;20026;-84
2023/10/06 11:51:06;;;;;;;12.90;5.68;;;23.30;99.90;;;;;;4995220;28;20116;-84
2023/10/06 11:53:33;;;;;;;10.35;5.10;;;22.50;99.80;;;;;;4993401;28;20069;-84
2023/10/06 11:56:05;;;;;;;16.90;5.93;;;22.60;99.20;;;;;;4994126;28;20133;-86
2023/10/06 11:58:39;;;;;;;14.65;6.15;;;22.50;99.40;;;;;;4994991;28;20037;-87
2023/10/06 12:01:05;;;;;;;13.50;6.65;;;22.30;99.90;;;;;;4997331;28;20397;-84
2023/10/06 12:03:42;;;;;;;15.70;6.40;;;22.20;99.90;;;;;;4995419;28;20022;-86
2023/10/06 12:06:14;;;;;;;18.90;7.85;;;21.40;99.90;;;;;;4994828;28;20034;-85
2023/10/06 12:08:44;;;;;;;14.38;7.20;;;20.90;99.90;;;;;;4994372;28;20041;-83
2023/10/06 12:11:12;;;;;;;22.63;8.68;;;20.40;99.90;;;;;;5011127;28;20037;-83
2023/10/06 12:13:39;;;;;;;16.25;7.78;;;20.10;99.90;;;;;;4995199;28;20037;-83
2023/10/06 12:16:15;;;;;;;14.77;6.20;;;19.80;99.90;;;;;;4994663;28;20050;-81
2023/10/06 12:18:43;;;;;;;17.92;7.78;;;19.30;99.90;;;;;;4994706;28;20432;-83
2023/10/06 12:21:11;;;;;;;21.73;9.20;;;19.30;99.80;;;;;;5012043;28;20045;-84
2023/10/06 12:23:37;;;;;;;22.63;8.35;;;19.20;99.90;;;;;;4994439;28;20113;-86
2023/10/06 12:26:06;;;;;;;22.63;10.15;;;18.90;99.90;;;;;;4994810;28;20034;-86
2023/10/06 12:28:33;;;;;;;16.60;9.45;;;18.80;99.90;;;;;;4994455;28;20038;-85
2023/10/06 12:30:58;;;;;;;17.05;7.70;;;18.90;99.90;;;;;;5015215;28;20763;-87
2023/10/06 12:33:24;;;;;;;17.55;8.07;;;18.90;99.90;;;;;;5015583;28;20037;-83
2023/10/06 12:35:53;;;;;;;18.15;8.77;;;18.40;99.90;;;;;;5015835;28;20038;-86
2023/10/06 12:38:19;;;;;;;18.17;8.27;;;18.50;99.90;;;;;;4997826;28;20401;-84
2023/10/06 12:40:48;;;;;;;20.13;8.85;;;18.40;99.90;;;;;;5015917;28;20030;-84
2023/10/06 12:43:16;;;;;;;16.15;7.43;;;18.40;99.90;;;;;;4998030;28;20038;-84
2023/10/06 12:45:42;;;;;;;19.13;7.93;;;18.20;99.90;;;;;;4998154;28;20092;-84
2023/10/06 12:48:08;;;;;;;15.93;7.72;;;18.00;99.90;;;;;;5016006;28;20477;-84
2023/10/06 12:50:43;;;;;;;19.52;7.50;;;18.10;99.90;;;;;;4998115;28;20033;-84
2023/10/06 12:53:13;;;;;;;19.95;8.10;;;18.20;99.90;;;;;;4981595;28;20121;-84
2023/10/06 12:55:42;;;;;;;18.10;8.18;;;18.20;99.90;;;;;;4997747;28;20041;-84
2023/10/06 12:58:14;;;;;;;20.15;8.07;;;18.40;99.90;;;;;;5015214;28;20061;-85
2023/10/06 13:00:40;;;;;;;20.20;8.43;;;18.10;99.90;;;;;;4997068;28;20397;-84
2023/10/06 13:03:15;;;;;;;25.25;7.78;;;17.80;99.90;;;;;;5013628;28;20068;-84
2023/10/06 13:05:45;;;;;;;17.40;7.47;;;17.70;99.90;;;;;;4997826;28;20036;-84
2023/10/06 13:08:16;;;;;;;16.02;7.72;;;17.20;99.90;;;;;;4997613;28;20026;-84